Time;durP1;ratioP1;P1;durP2;ratioP2;P2;SDS_P1;SDS_P2;PMS_P1;PMS_P2;Temp;Humidity;BMP_temperature;BMP_pressure;BME280_temperature;BME280_humidity;BME280_pressure;Samples;Min_cycle;Max_cycle;Signal;HPM_P1;HPM_P2
2022/04/11 00:01:38;;;;;;;11.00;6.80;;;;;;;1.78;80.22;97088.38;110125;1247;69272;-61
2022/04/11 00:04:08;;;;;;;;;;;;;;;1.77;80.38;97093.59;110121;1244;59765;-62
2022/04/11 00:06:37;;;;;;;8.70;6.50;;;;;;;1.77;80.27;97095.15;110099;1247;59681;-60
2022/04/11 00:09:08;;;;;;;7.70;6.20;;;;;;;1.78;79.54;97092.14;110127;1247;70605;-60
2022/04/11 00:11:38;;;;;;;9.00;7.20;;;;;;;1.80;79.16;97098.27;110033;1247;69387;-66
2022/04/11 00:14:09;;;;;;;9.40;7.90;;;;;;;1.79;79.20;97101.20;110057;1247;68472;-66
2022/04/11 00:16:39;;;;;;;;;;;;;;;1.78;79.40;97100.23;109957;1249;59803;-64
2022/04/11 00:19:09;;;;;;;;;;;;;;;1.76;79.20;97100.48;110101;1247;59741;-64
2022/04/11 00:21:40;;;;;;;9.50;6.80;;;;;;;1.76;78.99;97105.66;110078;1246;70561;-62
2022/04/11 00:24:11;;;;;;;8.20;7.40;;;;;;;1.75;79.21;97104.48;110109;1247;69350;-63
2022/04/11 00:26:43;;;;;;;7.50;6.20;;;;;;;1.72;79.93;97106.69;110068;1247;68666;-63
2022/04/11 00:29:14;;;;;;;9.60;7.10;;;;;;;1.69;79.79;97111.62;109977;1247;60105;-64
2022/04/11 00:31:44;;;;;;;9.40;7.50;;;;;;;1.66;79.67;97114.83;110118;1247;59627;-62
2022/04/11 00:34:14;;;;;;;7.90;6.70;;;;;;;1.63;79.64;97121.14;110076;1247;71419;-63
2022/04/11 00:36:45;;;;;;;8.80;6.90;;;;;;;1.60;79.69;97125.92;110117;1247;69398;-65
2022/04/11 00:39:16;;;;;;;7.70;5.70;;;;;;;1.57;79.34;97125.67;109973;1247;69289;-65
2022/04/11 00:41:46;;;;;;;10.90;6.90;;;;;;;1.54;79.84;97131.48;110071;1247;59671;-63
2022/04/11 00:44:17;;;;;;;9.80;7.90;;;;;;;1.50;79.96;97136.63;110101;1248;59684;-64
2022/04/11 00:46:47;;;;;;;8.30;7.00;;;;;;;1.46;80.45;97135.77;110029;1248;71533;-63
2022/04/11 00:49:17;;;;;;;9.30;6.20;;;;;;;1.43;80.55;97132.77;109900;1247;68607;-64
2022/04/11 00:51:47;;;;;;;8.50;6.90;;;;;;;1.41;80.52;97131.66;110069;1247;69259;-64
2022/04/11 00:54:17;;;;;;;8.20;6.60;;;;;;;1.37;80.61;97131.81;110073;1247;59749;-65
2022/04/11 00:56:50;;;;;;;9.40;6.70;;;;;;;1.34;80.91;97136.23;109917;1249;59724;-64
2022/04/11 00:59:21;;;;;;;8.90;7.00;;;;;;;1.31;81.34;97141.15;110078;1248;71526;-62
2022/04/11 01:01:51;;;;;;;9.30;7.60;;;;;;;1.27;81.39;97143.05;110026;1247;68289;-61
2022/04/11 01:04:26;;;;;;;8.10;6.90;;;;;;;1.26;81.12;97147.73;109997;1249;68507;-62
2022/04/11 01:07:03;;;;;;;9.70;7.20;;;;;;;1.25;81.32;97149.52;109976;1249;59760;-63
2022/04/11 01:09:35;;;;;;;9.30;7.30;;;;;;;1.27;81.55;97156.44;110137;1247;59709;-65
2022/04/11 01:12:07;;;;;;;11.30;8.70;;;;;;;1.31;81.75;97160.08;109858;1249;71636;-67
2022/04/11 01:14:37;;;;;;;10.00;7.80;;;;;;;1.34;82.32;97166.13;109904;1247;69523;-64
2022/04/11 01:17:08;;;;;;;11.90;8.10;;;;;;;1.36;81.79;97166.05;109906;1247;68512;-62
2022/04/11 01:19:38;;;;;;;7.40;6.00;;;;;;;1.38;80.94;97169.04;110013;1247;59735;-62
2022/04/11 01:22:10;;;;;;;7.60;6.00;;;;;;;1.40;80.67;97167.78;110035;1248;60098;-61
2022/04/11 01:24:42;;;;;;;7.60;6.10;;;;;;;1.41;81.10;97169.11;110009;1247;71144;-61
2022/04/11 01:27:12;;;;;;;8.60;7.50;;;;;;;1.42;80.93;97170.25;109833;1250;69329;-61
2022/04/11 01:29:42;;;;;;;11.30;6.90;;;;;;;1.41;80.63;97172.70;109982;1250;68718;-62
2022/04/11 01:32:12;;;;;;;9.10;7.20;;;;;;;1.38;80.62;97174.20;110034;1247;59777;-62
2022/04/11 01:34:43;;;;;;;8.80;6.70;;;;;;;1.35;80.78;97179.65;109676;1247;59762;-65
2022/04/11 01:37:13;;;;;;;9.90;7.50;;;;;;;1.33;80.81;97179.39;110047;1247;71519;-62
2022/04/11 01:39:43;;;;;;;10.20;7.70;;;;;;;1.30;81.06;97186.04;110064;1247;68948;-62
2022/04/11 01:42:13;;;;;;;7.50;6.70;;;;;;;1.26;81.90;97187.88;110046;1247;68432;-62
2022/04/11 01:44:43;;;;;;;10.30;6.60;;;;;;;1.25;81.84;97193.59;109999;1249;59706;-62
2022/04/11 01:47:13;;;;;;;7.70;6.30;;;;;;;1.24;81.93;97191.05;109721;1249;59744;-61
2022/04/11 01:49:45;;;;;;;10.00;7.40;;;;;;;1.23;81.30;97199.52;110126;1247;71526;-60
2022/04/11 01:52:15;;;;;;;9.20;7.40;;;;;;;1.23;81.58;97203.98;109887;1249;68447;-61
2022/04/11 01:54:45;;;;;;;8.80;6.10;;;;;;;1.22;82.93;97210.00;109818;1250;69469;-61
2022/04/11 01:57:37;;;;;;;10.80;7.80;;;;;;;1.22;82.61;97216.71;110091;1247;59720;-61
2022/04/11 02:00:08;;;;;;;10.90;7.00;;;;;;;1.22;81.03;97212.97;109871;1250;59713;-62
2022/04/11 02:02:43;;;;;;;11.20;9.40;;;;;;;1.21;81.70;97219.02;110051;1249;71239;-62
2022/04/11 02:05:13;;;;;;;9.70;7.10;;;;;;;1.20;82.92;97221.77;109996;1248;69764;-61
2022/04/11 02:07:43;;;;;;;8.80;6.60;;;;;;;1.20;82.16;97221.45;109927;1247;68670;-61
2022/04/11 02:10:13;;;;;;;11.20;7.40;;;;;;;1.19;81.52;97224.05;110140;1246;59688;-62
2022/04/11 02:12:45;;;;;;;11.80;8.80;;;;;;;1.19;81.44;97225.95;110040;1247;59688;-61
2022/04/11 02:15:16;;;;;;;9.20;7.20;;;;;;;1.19;80.91;97227.32;110024;1247;70606;-60
2022/04/11 02:17:46;;;;;;;10.10;8.30;;;;;;;1.19;80.65;97224.41;110058;1247;68639;-61
2022/04/11 02:20:17;;;;;;;9.70;6.40;;;;;;;1.16;80.42;97228.11;109985;1247;69219;-63
2022/04/11 02:22:53;;;;;;;10.70;7.80;;;;;;;1.14;80.48;97229.54;109974;1247;59688;-61
2022/04/11 02:25:27;;;;;;;11.10;8.50;;;;;;;1.12;80.80;97233.94;109845;1249;59758;-60
2022/04/11 02:27:58;;;;;;;13.50;9.40;;;;;;;1.08;81.79;97239.58;109818;1248;71394;-60
2022/04/11 02:30:28;;;;;;;;;;;;;;;1.04;82.51;97242.48;110124;1247;69841;-62
2022/04/11 02:32:58;;;;;;;12.10;8.80;;;;;;;0.96;82.83;97239.50;110112;1247;68659;-63
2022/04/11 02:35:27;;;;;;;10.00;7.40;;;;;;;0.87;83.53;97243.80;110075;1247;59673;-65
2022/04/11 02:37:57;;;;;;;10.80;8.40;;;;;;;0.82;83.95;97245.87;110036;1249;59747;-67
2022/04/11 02:40:27;;;;;;;10.60;8.80;;;;;;;0.77;84.39;97250.52;109874;1247;71512;-62
2022/04/11 02:43:16;;;;;;;13.00;10.10;;;;;;;0.73;84.86;97250.13;110033;1247;69366;-63
2022/04/11 02:46:08;;;;;;;10.10;7.30;;;;;;;0.69;84.50;97253.35;110096;1246;68624;-62
2022/04/11 02:48:39;;;;;;;9.50;6.30;;;;;;;0.65;83.91;97254.89;109931;1249;59748;-65
2022/04/11 02:51:13;;;;;;;11.90;8.20;;;;;;;0.62;82.62;97256.90;110009;1248;60039;-61
2022/04/11 02:53:47;;;;;;;15.10;10.10;;;;;;;0.59;82.73;97256.80;110037;1249;71542;-63
2022/04/11 02:56:17;;;;;;;11.90;8.00;;;;;;;0.57;82.71;97259.98;109959;1247;68485;-64
2022/04/11 02:58:47;;;;;;;15.90;10.70;;;;;;;0.55;81.69;97258.67;110003;1247;68270;-63
2022/04/11 03:01:18;;;;;;;11.30;9.10;;;;;;;0.52;81.77;97259.81;110032;1249;59685;-62
2022/04/11 03:03:49;;;;;;;11.60;7.70;;;;;;;0.48;82.05;97260.62;109772;1251;59737;-63
2022/04/11 03:06:19;;;;;;;13.40;9.70;;;;;;;0.45;82.25;97265.19;109917;1247;70778;-64
2022/04/11 03:08:49;;;;;;;11.30;8.30;;;;;;;0.41;83.17;97263.77;109984;1249;69453;-59
2022/04/11 03:11:25;;;;;;;10.20;7.90;;;;;;;0.38;83.70;97263.56;110046;1248;68635;-62
2022/04/11 03:13:55;;;;;;;14.40;10.50;;;;;;;0.34;84.86;97265.21;109887;1249;59763;-62
2022/04/11 03:16:26;;;;;;;10.60;8.30;;;;;;;0.29;86.49;97267.27;109997;1248;60103;-64
2022/04/11 03:18:55;;;;;;;9.80;8.00;;;;;;;0.25;86.18;97265.54;109977;1250;71875;-61
2022/04/11 03:21:25;;;;;;;;;;;;;;;0.20;86.25;97270.33;109759;1250;69239;-61
2022/04/11 03:24:04;;;;;;;12.80;9.10;;;;;;;0.15;86.18;97276.16;110030;1247;68886;-61
2022/04/11 03:26:35;;;;;;;11.80;8.80;;;;;;;0.12;85.24;97277.61;109834;1247;59752;-61
2022/04/11 03:29:07;;;;;;;18.10;12.00;;;;;;;0.10;84.21;97284.55;110079;1247;59769;-61
2022/04/11 03:31:36;;;;;;;18.60;12.80;;;;;;;0.10;84.14;97287.47;110031;1250;71369;-61
2022/04/11 03:34:08;;;;;;;14.20;10.60;;;;;;;0.08;84.23;97286.31;110006;1250;69395;-60
2022/04/11 03:36:38;;;;;;;21.70;14.70;;;;;;;0.07;85.89;97286.00;109851;1247;69383;-61
2022/04/11 03:39:08;;;;;;;23.70;13.20;;;;;;;0.06;85.62;97286.58;109936;1249;59685;-61
2022/04/11 03:41:43;;;;;;;19.30;12.70;;;;;;;0.03;85.55;97292.81;109864;1249;59615;-61
2022/04/11 03:44:23;;;;;;;22.30;13.30;;;;;;;0.02;84.50;97294.25;110024;1247;71686;-61
2022/04/11 03:46:56;;;;;;;23.00;14.20;;;;;;;0.02;83.23;97297.65;110117;1247;68441;-62
2022/04/11 03:49:28;;;;;;;26.00;16.70;;;;;;;0.03;83.38;97298.66;110036;1247;69405;-61
2022/04/11 03:52:02;;;;;;;18.40;13.00;;;;;;;0.04;86.26;97302.38;110027;1247;59770;-61
2022/04/11 03:54:32;;;;;;;;;;;;;;;0.06;86.63;97300.95;110032;1249;59773;-62
2022/04/11 03:57:02;;;;;;;15.80;10.60;;;;;;;0.07;88.42;97301.95;110059;1247;71410;-61
2022/04/11 03:59:32;;;;;;;17.50;11.50;;;;;;;0.08;87.90;97306.88;109880;1250;68678;-60
2022/04/11 04:02:01;;;;;;;13.70;10.20;;;;;;;0.09;87.95;97309.77;109986;1248;67718;-60
2022/04/11 04:04:31;;;;;;;25.30;16.70;;;;;;;0.09;87.30;97313.55;110001;1249;60100;-62
2022/04/11 04:07:01;;;;;;;27.60;15.90;;;;;;;0.09;85.71;97319.53;109983;1250;59642;-60
2022/04/11 04:09:30;;;;;;;19.70;12.60;;;;;;;0.11;84.18;97321.21;110005;1249;71611;-62
2022/04/11 04:12:00;;;;;;;28.30;18.10;;;;;;;0.12;84.03;97327.16;110018;1250;68599;-60
2022/04/11 04:14:42;;;;;;;25.20;14.20;;;;;;;0.13;85.14;97334.83;109837;1247;68606;-61
2022/04/11 04:17:12;;;;;;;23.50;15.30;;;;;;;0.14;84.03;97337.19;109986;1249;59692;-60
2022/04/11 04:19:50;;;;;;;23.70;15.00;;;;;;;0.17;83.55;97339.48;110037;1247;59667;-61
2022/04/11 04:22:21;;;;;;;26.40;18.50;;;;;;;0.21;83.93;97347.27;109958;1247;70833;-62
2022/04/11 04:24:50;;;;;;;30.80;21.70;;;;;;;0.24;85.45;97346.10;109985;1249;69550;-62
2022/04/11 04:27:19;;;;;;;29.70;19.20;;;;;;;0.29;86.29;97345.95;110119;1247;69396;-62
2022/04/11 04:29:49;;;;;;;36.40;23.90;;;;;;;0.34;85.32;97348.38;110100;1247;59712;-62
2022/04/11 04:32:19;;;;;;;39.60;25.90;;;;;;;0.39;84.34;97351.64;109945;1250;59731;-60
2022/04/11 04:34:49;;;;;;;38.40;25.90;;;;;;;0.43;84.01;97352.00;110118;1248;71060;-64
2022/04/11 04:37:20;;;;;;;26.40;17.00;;;;;;;0.49;85.43;97354.73;109990;1248;69389;-63
2022/04/11 04:39:49;;;;;;;30.00;21.80;;;;;;;0.56;85.48;97353.30;109774;1249;69464;-66
2022/04/11 04:42:23;;;;;;;32.90;19.60;;;;;;;0.63;86.17;97354.95;109768;1249;59760;-62
2022/04/11 04:44:55;;;;;;;28.90;20.40;;;;;;;0.71;86.28;97360.49;109915;1249;60100;-63
2022/04/11 04:47:28;;;;;;;25.40;17.80;;;;;;;0.77;85.96;97358.90;109787;1250;71563;-64
2022/04/11 04:49:58;;;;;;;26.30;17.40;;;;;;;0.86;85.30;97362.89;109856;1248;69317;-62
2022/04/11 04:52:28;;;;;;;25.40;18.20;;;;;;;0.97;85.03;97365.26;109657;1250;68694;-63
2022/04/11 04:55:01;;;;;;;21.00;14.40;;;;;;;1.08;85.18;97362.13;109577;1251;59675;-65
2022/04/11 04:57:32;;;;;;;20.80;14.10;;;;;;;1.20;84.97;97363.92;109775;1249;59787;-66
2022/04/11 05:00:05;;;;;;;18.00;12.90;;;;;;;1.37;84.43;97364.86;109850;1249;69747;-66
2022/04/11 05:02:43;;;;;;;16.60;11.30;;;;;;;1.58;84.36;97363.20;110110;1247;68864;-62
2022/04/11 05:05:16;;;;;;;15.50;11.00;;;;;;;1.83;83.37;97365.17;109997;1247;67937;-66
2022/04/11 05:07:45;;;;;;;15.70;11.80;;;;;;;2.07;83.03;97363.05;109933;1248;59694;-62
2022/04/11 05:10:18;;;;;;;13.90;8.70;;;;;;;2.28;82.60;97363.92;109934;1249;59722;-62
2022/04/11 05:12:49;;;;;;;17.40;12.90;;;;;;;2.41;81.11;97357.89;109814;1249;70892;-63
2022/04/11 05:15:18;;;;;;;18.50;11.60;;;;;;;2.53;78.69;97355.69;109974;1248;69413;-62
2022/04/11 05:17:51;;;;;;;17.80;11.80;;;;;;;2.75;81.47;97364.73;109912;1248;69191;-63
2022/04/11 05:20:21;;;;;;;12.20;9.40;;;;;;;2.82;79.67;97367.17;110067;1247;60101;-60
2022/04/11 05:22:51;;;;;;;8.20;7.00;;;;;;;2.89;76.06;97364.65;109972;1249;59682;-64
2022/04/11 05:25:21;;;;;;;11.40;8.00;;;;;;;2.92;76.28;97364.33;109916;1247;71516;-63
2022/04/11 05:27:51;;;;;;;8.80;6.60;;;;;;;3.00;77.02;97367.27;109873;1250;69420;-64
2022/04/11 05:30:21;;;;;;;13.10;10.10;;;;;;;3.06;75.93;97363.07;109765;1250;68270;-64
2022/04/11 05:32:51;;;;;;;16.70;12.60;;;;;;;3.05;75.93;97364.14;110021;1249;59646;-62
2022/04/11 05:35:21;;;;;;;12.40;9.40;;;;;;;3.07;77.30;97365.25;110043;1247;59694;-62
2022/04/11 05:37:50;;;;;;;11.30;8.80;;;;;;;3.30;75.73;97365.77;109983;1248;71571;-62
2022/04/11 05:40:20;;;;;;;8.90;7.10;;;;;;;3.72;74.69;97369.02;110036;1248;69381;-64
2022/04/11 05:42:50;;;;;;;6.80;5.70;;;;;;;4.25;73.57;97366.77;109846;1249;69437;-65
2022/04/11 05:45:20;;;;;;;7.00;5.70;;;;;;;4.76;72.77;97367.66;110010;1249;59747;-66
2022/04/11 05:47:50;;;;;;;9.30;6.20;;;;;;;5.22;69.36;97362.20;110033;1247;59682;-65
2022/04/11 05:50:19;;;;;;;7.50;6.10;;;;;;;5.60;67.14;97362.63;109792;1248;71563;-65
2022/04/11 05:52:49;;;;;;;5.80;5.20;;;;;;;5.81;63.68;97364.45;110059;1247;69555;-64
2022/04/11 05:55:19;;;;;;;7.30;5.80;;;;;;;6.07;65.16;97364.63;109822;1250;69530;-63
2022/04/11 05:57:48;;;;;;;7.40;6.10;;;;;;;6.37;63.13;97362.25;109984;1248;59744;-63
2022/04/11 06:00:18;;;;;;;6.10;5.10;;;;;;;6.57;60.86;97365.23;109903;1248;59733;-67
2022/04/11 06:02:48;;;;;;;8.20;5.90;;;;;;;6.92;61.16;97365.97;109843;1247;70889;-63
2022/04/11 06:05:19;;;;;;;9.30;6.10;;;;;;;7.22;60.61;97369.27;109917;1251;68634;-61
2022/04/11 06:07:49;;;;;;;;;;;;;;;7.36;58.80;97365.12;109822;1251;68505;-65
2022/04/11 06:10:19;;;;;;;8.10;5.90;;;;;;;7.38;57.15;97363.79;109781;1249;59698;-63
2022/04/11 06:12:50;;;;;;;7.70;5.60;;;;;;;7.79;59.38;97364.23;110025;1247;59669;-63
2022/04/11 06:15:19;;;;;;;7.80;5.80;;;;;;;8.12;57.37;97365.20;109883;1251;73490;-62
2022/04/11 06:17:55;;;;;;;6.80;6.00;;;;;;;8.27;55.63;97361.35;109840;1250;68651;-64
2022/04/11 06:20:25;;;;;;;8.50;6.10;;;;;;;8.15;55.40;97362.30;109881;1250;67732;-60
2022/04/11 06:22:55;;;;;;;7.00;5.90;;;;;;;8.19;55.97;97365.81;109937;1248;59682;-65
2022/04/11 06:25:25;;;;;;;6.00;5.40;;;;;;;8.51;57.32;97369.16;109930;1250;59687;-64
2022/04/11 06:27:54;;;;;;;7.60;6.40;;;;;;;8.69;55.06;97370.07;109562;1248;575723;-67
2022/04/11 06:30:23;;;;;;;7.10;5.60;;;;;;;8.79;56.39;97377.27;109887;1250;68870;-64
2022/04/11 06:32:53;;;;;;;6.90;5.10;;;;;;;8.78;53.00;97376.80;109849;1249;69423;-64
2022/04/11 06:35:22;;;;;;;7.80;5.90;;;;;;;9.03;54.26;97381.04;109850;1250;60128;-61
2022/04/11 06:37:51;;;;;;;5.60;5.00;;;;;;;9.11;53.45;97389.05;109939;1250;59664;-64
2022/04/11 06:40:22;;;;;;;7.30;5.00;;;;;;;9.04;51.45;97387.36;110033;1249;71389;-65
2022/04/11 06:42:52;;;;;;;6.70;4.70;;;;;;;9.03;52.57;97387.09;109994;1248;69423;-62
2022/04/11 06:45:40;;;;;;;7.10;5.00;;;;;;;9.05;52.11;97388.71;109953;1248;67621;-62
2022/04/11 06:48:10;;;;;;;5.70;4.90;;;;;;;9.22;51.02;97391.92;109866;1250;59742;-62
2022/04/11 06:50:40;;;;;;;;;;;;;;;9.38;52.41;97388.23;110000;1250;59753;-64
2022/04/11 06:53:09;;;;;;;5.10;4.50;;;;;;;9.50;50.82;97390.03;110002;1249;70773;-64
2022/04/11 06:55:39;;;;;;;5.40;4.40;;;;;;;9.96;51.19;97393.05;110044;1250;69387;-63
2022/04/11 06:58:08;;;;;;;5.80;4.30;;;;;;;10.23;49.43;97394.83;110023;1248;69554;-66
2022/04/11 07:00:37;;;;;;;6.00;4.40;;;;;;;10.47;49.41;97392.81;109997;1248;59686;-67
2022/04/11 07:03:07;;;;;;;4.80;4.20;;;;;;;10.74;48.25;97395.30;110012;1248;59629;-62
2022/04/11 07:05:39;;;;;;;7.00;5.90;;;;;;;10.68;47.35;97398.04;110027;1248;70738;-63
2022/04/11 07:08:08;;;;;;;15.60;7.90;;;;;;;10.49;48.40;97399.04;110089;1248;69390;-63
2022/04/11 07:10:40;;;;;;;5.80;5.20;;;;;;;10.88;47.65;97397.30;109986;1248;69409;-64
2022/04/11 07:13:09;;;;;;;6.60;4.90;;;;;;;10.88;45.77;97401.80;110000;1248;59695;-63
2022/04/11 07:15:39;;;;;;;6.30;4.40;;;;;;;11.07;47.32;97407.90;110036;1250;59677;-62
2022/04/11 07:18:09;;;;;;;5.80;4.10;;;;;;;11.16;47.09;97409.29;110080;1248;71659;-63
2022/04/11 07:20:38;;;;;;;5.50;4.00;;;;;;;11.24;46.01;97410.27;110021;1248;67923;-62
2022/04/11 07:23:08;;;;;;;5.30;4.00;;;;;;;11.41;46.10;97413.52;110014;1247;68627;-63
2022/04/11 07:25:38;;;;;;;5.20;3.90;;;;;;;11.18;44.65;97417.70;110007;1248;59759;-62
2022/04/11 07:28:07;;;;;;;5.90;4.40;;;;;;;10.92;46.01;97422.73;110023;1247;60111;-64
2022/04/11 07:30:36;;;;;;;7.20;4.30;;;;;;;11.05;46.33;97420.71;110049;1247;71601;-62
2022/04/11 07:33:08;;;;;;;7.50;4.80;;;;;;;10.82;44.87;97428.16;109932;1250;69978;-63
2022/04/11 07:35:37;;;;;;;5.60;4.20;;;;;;;10.29;46.23;97430.76;110010;1247;68702;-65
2022/04/11 07:38:06;;;;;;;4.90;4.20;;;;;;;10.63;46.47;97426.30;110141;1247;59706;-64
2022/04/11 07:40:35;;;;;;;5.30;4.10;;;;;;;10.75;47.13;97429.57;110094;1248;59622;-65
2022/04/11 07:43:05;;;;;;;4.10;3.50;;;;;;;10.98;48.13;97430.88;109976;1250;70779;-64
2022/04/11 07:45:34;;;;;;;5.40;3.20;;;;;;;11.26;47.79;97435.36;110035;1247;68726;-63
2022/04/11 07:48:04;;;;;;;;;;;;;;;11.69;46.18;97431.08;110066;1248;69409;-63
2022/04/11 07:50:34;;;;;;;4.60;3.30;;;;;;;11.98;46.15;97433.36;110039;1247;59699;-63
2022/04/11 07:53:03;;;;;;;5.40;3.10;;;;;;;12.52;43.24;97433.69;110075;1247;59634;-63
2022/04/11 07:55:33;;;;;;;4.70;3.10;;;;;;;12.65;41.51;97431.00;110093;1248;70804;-63
2022/04/11 07:58:03;;;;;;;4.60;2.80;;;;;;;12.65;41.83;97427.91;110082;1248;68489;-63
2022/04/11 08:00:32;;;;;;;5.70;3.50;;;;;;;12.71;42.70;97432.11;110020;1247;69583;-63
2022/04/11 08:03:02;;;;;;;4.50;3.30;;;;;;;12.86;40.64;97432.30;110116;1247;59724;-63
2022/04/11 08:05:32;;;;;;;5.10;3.30;;;;;;;12.81;41.02;97433.23;110083;1248;59687;-63
2022/04/11 08:08:01;;;;;;;4.30;3.00;;;;;;;13.01;41.44;97431.95;110103;1247;70857;-63
2022/04/11 08:10:32;;;;;;;4.30;3.80;;;;;;;13.23;40.22;97433.98;110057;1247;68637;-62
2022/04/11 08:13:01;;;;;;;4.70;3.10;;;;;;;12.82;39.95;97432.80;110058;1248;69527;-61
2022/04/11 08:15:33;;;;;;;3.40;3.10;;;;;;;12.76;41.10;97435.58;110065;1248;59732;-62
2022/04/11 08:18:02;;;;;;;4.00;2.90;;;;;;;12.90;40.64;97431.31;110040;1247;59755;-65
2022/04/11 08:20:32;;;;;;;3.70;2.60;;;;;;;13.36;40.15;97434.29;110083;1247;71574;-62
2022/04/11 08:23:01;;;;;;;5.40;3.00;;;;;;;13.81;39.33;97436.46;110140;1248;68671;-63
2022/04/11 08:25:31;;;;;;;4.40;2.90;;;;;;;14.02;38.00;97436.77;110083;1248;68957;-62
2022/04/11 08:28:00;;;;;;;5.50;3.10;;;;;;;14.08;37.92;97430.66;109901;1249;59672;-62
2022/04/11 08:30:30;;;;;;;4.20;2.80;;;;;;;14.42;36.88;97428.95;110148;1247;59695;-62
2022/04/11 08:32:59;;;;;;;5.80;3.50;;;;;;;14.74;36.60;97431.02;110130;1247;71572;-63
2022/04/11 08:35:28;;;;;;;6.30;3.40;;;;;;;14.82;36.30;97428.15;109927;1251;68626;-62
2022/04/11 08:37:57;;;;;;;5.80;2.90;;;;;;;14.97;36.92;97430.34;110071;1248;70040;-64
2022/04/11 08:40:26;;;;;;;4.50;3.00;;;;;;;15.32;35.49;97428.39;110119;1247;59693;-62
2022/04/11 08:42:56;;;;;;;4.80;3.40;;;;;;;14.52;35.08;97433.06;109894;1250;59748;-62
2022/04/11 08:45:27;;;;;;;6.30;3.30;;;;;;;14.68;35.68;97427.78;110013;1247;71557;-64
2022/04/11 08:47:56;;;;;;;4.00;2.90;;;;;;;15.08;33.85;97424.60;110000;1247;69523;-65
2022/04/11 08:50:27;;;;;;;5.20;3.50;;;;;;;15.64;35.00;97427.00;109954;1248;68687;-65
2022/04/11 08:52:57;;;;;;;4.70;2.80;;;;;;;15.91;34.06;97422.77;110101;1247;59783;-63
2022/04/11 08:55:26;;;;;;;6.00;3.30;;;;;;;16.33;34.45;97423.48;110069;1247;59683;-63
2022/04/11 08:58:00;;;;;;;4.80;2.70;;;;;;;16.22;32.97;97425.19;110020;1247;71618;-63
2022/04/11 09:00:31;;;;;;;3.40;3.10;;;;;;;15.29;33.96;97423.05;109989;1247;69511;-63
2022/04/11 09:03:00;;;;;;;6.30;3.50;;;;;;;14.92;34.98;97427.73;110032;1247;67880;-65
2022/04/11 09:05:29;;;;;;;3.90;2.90;;;;;;;14.69;35.35;97431.94;110002;1249;59685;-66
2022/04/11 09:07:59;;;;;;;4.20;2.80;;;;;;;15.16;33.90;97427.38;110033;1247;59619;-62
2022/04/11 09:10:37;;;;;;;4.70;2.80;;;;;;;15.52;31.54;97424.23;110071;1248;70559;-62
2022/04/11 09:13:09;;;;;;;3.80;2.80;;;;;;;15.78;32.26;97419.16;110082;1247;69370;-66
2022/04/11 09:15:41;;;;;;;2.90;2.40;;;;;;;15.99;31.38;97419.88;109959;1250;70122;-63
2022/04/11 09:18:11;;;;;;;4.60;3.50;;;;;;;15.63;31.81;97424.48;110096;1246;59687;-64
2022/04/11 09:20:42;;;;;;;5.30;2.80;;;;;;;14.78;33.16;97409.21;110041;1248;59684;-64
2022/04/11 09:23:21;;;;;;;3.50;2.50;;;;;;;14.85;33.39;97411.77;110076;1247;71726;-67
2022/04/11 09:25:51;;;;;;;5.10;2.60;;;;;;;14.76;33.84;97409.61;110124;1247;69400;-62
2022/04/11 09:28:20;;;;;;;4.10;2.60;;;;;;;14.42;33.60;97411.73;109920;1251;69461;-62
2022/04/11 09:30:50;;;;;;;3.80;2.80;;;;;;;14.67;32.35;97410.61;109969;1249;59688;-65
2022/04/11 09:33:19;;;;;;;4.50;2.70;;;;;;;14.64;32.96;97410.88;110041;1246;59685;-62
2022/04/11 09:35:50;;;;;;;4.30;2.80;;;;;;;13.92;32.75;97406.95;110079;1247;70909;-63
2022/04/11 09:38:21;;;;;;;4.50;3.20;;;;;;;13.09;33.49;97402.98;110055;1247;69467;-63
2022/04/11 09:40:56;;;;;;;4.80;2.60;;;;;;;13.44;33.93;97406.31;109774;1248;69442;-62
2022/04/11 09:43:27;;;;;;;3.20;2.80;;;;;;;13.72;34.29;97403.07;109976;1247;59746;-62
2022/04/11 09:46:02;;;;;;;5.90;3.10;;;;;;;13.34;34.75;97400.90;109971;1248;59740;-62
2022/04/11 09:48:37;;;;;;;4.70;2.80;;;;;;;13.14;34.83;97402.67;109999;1248;70785;-63
2022/04/11 09:51:13;;;;;;;4.30;3.10;;;;;;;12.81;35.27;97403.86;109828;1251;69406;-65
2022/04/11 09:53:43;;;;;;;4.30;2.90;;;;;;;12.44;35.42;97405.09;110023;1247;68855;-63
2022/04/11 09:56:13;;;;;;;5.00;3.30;;;;;;;11.65;35.96;97402.97;109772;1247;59772;-63
2022/04/11 09:58:42;;;;;;;3.40;2.80;;;;;;;11.61;37.51;97402.70;110010;1246;59631;-63
2022/04/11 10:01:13;;;;;;;5.60;3.10;;;;;;;11.32;36.37;97401.96;109752;1251;71597;-63
2022/04/11 10:03:42;;;;;;;3.30;2.40;;;;;;;11.16;37.83;97405.08;109967;1248;68848;-65
2022/04/11 10:06:13;;;;;;;6.00;3.50;;;;;;;10.78;39.30;97406.20;109946;1247;69451;-63
2022/04/11 10:08:42;;;;;;;;;;;;;;;10.17;40.71;97408.50;109996;1248;59728;-62
2022/04/11 10:11:12;;;;;;;3.90;3.10;;;;;;;9.86;40.34;97412.05;110012;1247;59670;-63
2022/04/11 10:13:42;;;;;;;;;;;;;;;9.60;40.69;97407.77;110013;1248;71517;-65
2022/04/11 10:16:11;;;;;;;4.10;3.10;;;;;;;9.44;41.28;97406.29;109988;1247;67635;-63
2022/04/11 10:18:41;;;;;;;4.50;3.20;;;;;;;9.46;41.16;97410.61;109980;1247;69534;-62
2022/04/11 10:21:13;;;;;;;4.00;2.90;;;;;;;9.85;41.01;97410.53;109996;1247;59771;-62
2022/04/11 10:24:05;;;;;;;4.60;3.00;;;;;;;10.39;39.74;97406.21;110022;1248;59680;-62
2022/04/11 10:26:52;;;;;;;3.70;2.70;;;;;;;11.05;37.90;97398.92;110081;1247;71573;-62
2022/04/11 10:29:37;;;;;;;4.40;3.00;;;;;;;12.00;36.61;97398.63;109993;1248;69173;-62
2022/04/11 10:32:16;;;;;;;4.10;2.40;;;;;;;13.01;34.50;97391.23;109940;1247;69101;-63
2022/04/11 10:34:45;;;;;;;3.80;2.50;;;;;;;14.04;33.55;97397.66;110041;1246;59659;-63
2022/04/11 10:37:20;;;;;;;5.50;3.00;;;;;;;14.97;32.94;97391.91;110044;1247;59731;-62
2022/04/11 10:39:50;;;;;;;3.30;2.40;;;;;;;15.39;30.43;97397.51;110053;1247;72288;-62
2022/04/11 10:42:25;;;;;;;2.90;1.90;;;;;;;14.71;28.00;97400.77;110056;1247;69729;-62
2022/04/11 10:44:56;;;;;;;3.50;2.50;;;;;;;13.87;29.63;97413.83;110009;1248;69531;-65
2022/04/11 10:47:30;;;;;;;2.70;2.20;;;;;;;12.74;31.69;97410.89;110041;1247;59733;-62
2022/04/11 10:49:59;;;;;;;2.50;2.30;;;;;;;12.40;32.48;97416.42;110087;1247;59750;-71
2022/04/11 10:52:34;;;;;;;3.20;2.60;;;;;;;12.30;33.22;97410.45;110047;1247;70766;-64
2022/04/11 10:55:30;;;;;;;3.20;2.40;;;;;;;12.47;33.16;97412.21;109730;1248;68902;-64
2022/04/11 10:58:01;;;;;;;3.00;2.50;;;;;;;12.71;33.14;97409.94;110001;1247;69982;-69
2022/04/11 11:00:32;;;;;;;4.40;2.90;;;;;;;12.55;33.05;97405.79;109709;1248;59732;-68
2022/04/11 11:03:13;;;;;;;3.90;2.90;;;;;;;12.39;33.07;97403.75;109823;1247;59741;-69
2022/04/11 11:05:49;;;;;;;3.00;2.30;;;;;;;11.97;32.45;97403.23;110030;1247;71671;-65
2022/04/11 11:08:19;;;;;;;4.50;2.70;;;;;;;11.22;33.68;97408.98;110062;1248;69092;-68
2022/04/11 11:11:01;;;;;;;3.80;2.50;;;;;;;11.10;34.62;97406.41;110034;1247;69418;-66
2022/04/11 11:13:41;;;;;;;4.70;2.80;;;;;;;11.59;33.04;97407.80;109963;1247;60051;-69
2022/04/11 11:16:14;;;;;;;3.60;2.30;;;;;;;12.35;31.35;97405.13;110113;1247;59670;-68
2022/04/11 11:19:00;;;;;;;5.00;2.60;;;;;;;13.41;30.79;97403.11;109944;1250;71440;-66
2022/04/11 11:21:32;;;;;;;2.80;2.30;;;;;;;14.24;30.86;97400.02;110108;1247;69358;-67
2022/04/11 11:24:04;;;;;;;3.20;2.30;;;;;;;14.58;29.01;97397.16;109990;1248;68658;-68
2022/04/11 11:26:48;;;;;;;2.50;2.20;;;;;;;14.89;29.49;97395.09;110041;1247;59760;-68
2022/04/11 11:29:23;;;;;;;5.30;2.40;;;;;;;15.63;28.44;97402.12;110059;1247;59615;-68
2022/04/11 11:32:04;;;;;;;3.40;2.10;;;;;;;15.44;27.43;97391.65;110065;1248;71542;-66
2022/04/11 11:34:36;;;;;;;2.60;1.80;;;;;;;15.18;25.83;97406.10;110035;1247;68693;-62
2022/04/11 11:37:10;;;;;;;2.70;2.20;;;;;;;14.86;25.62;97404.16;110007;1246;68627;-70
2022/04/11 11:39:44;;;;;;;2.60;2.00;;;;;;;14.72;27.50;97396.79;110030;1247;59782;-64
2022/04/11 11:42:15;;;;;;;3.70;2.30;;;;;;;15.32;27.62;97399.42;109968;1247;59749;-69
2022/04/11 11:44:50;;;;;;;3.70;2.10;;;;;;;15.21;27.52;97399.38;110082;1246;72700;-68
2022/04/11 11:47:29;;;;;;;3.50;2.60;;;;;;;14.78;27.71;97402.71;109845;1248;69654;-67
2022/04/11 11:50:09;;;;;;;2.40;2.00;;;;;;;14.07;28.46;97412.34;110082;1246;69908;-67